createdAt,value
2023-11-04T00:01:46.863Z,11.25
2023-11-04T00:03:48.512Z,11.25
2023-11-04T00:05:50.073Z,11.24
2023-11-04T00:07:52.530Z,11.23
2023-11-04T00:09:55.930Z,11.21
2023-11-04T00:11:58.623Z,11.20
2023-11-04T00:14:00.170Z,11.16
2023-11-04T00:16:04.406Z,11.15
2023-11-04T00:18:06.015Z,11.15
2023-11-04T00:20:08.157Z,11.13
2023-11-04T00:22:09.643Z,11.11
2023-11-04T00:24:11.716Z,11.11
2023-11-04T00:26:13.170Z,11.09
2023-11-04T00:28:20.224Z,11.07
2023-11-04T00:30:21.734Z,11.07
2023-11-04T00:32:24.649Z,11.06
2023-11-04T00:34:27.406Z,11.06
2023-11-04T00:36:29.372Z,11.05
2023-11-04T00:38:32.086Z,11.03
2023-11-04T00:40:33.551Z,11.04
2023-11-04T00:42:35.075Z,11.03
2023-11-04T00:44:36.576Z,11.02
2023-11-04T00:46:39.731Z,11.01
2023-11-04T00:48:41.331Z,11.01
2023-11-04T00:50:43.120Z,11.00
2023-11-04T00:52:44.602Z,10.97
2023-11-04T00:54:46.145Z,10.97
2023-11-04T00:56:47.740Z,10.97
2023-11-04T00:58:49.216Z,10.96
2023-11-04T01:00:50.836Z,10.95
2023-11-04T01:02:56.738Z,10.93
2023-11-04T01:04:58.333Z,10.92
2023-11-04T01:06:59.796Z,10.90
2023-11-04T01:09:01.309Z,10.90
2023-11-04T01:11:02.882Z,10.89
2023-11-04T01:13:05.371Z,10.89
2023-11-04T01:15:08.085Z,10.87
2023-11-04T01:17:09.710Z,10.86
2023-11-04T01:19:11.243Z,10.85
2023-11-04T01:21:12.797Z,10.84
2023-11-04T01:23:14.510Z,10.83
2023-11-04T01:25:16.466Z,10.83
2023-11-04T01:27:17.943Z,10.82
2023-11-04T01:29:20.286Z,10.82
2023-11-04T01:31:21.762Z,10.80
2023-11-04T01:33:23.487Z,10.79
2023-11-04T01:35:25.186Z,10.78
2023-11-04T01:37:26.936Z,10.76
2023-11-04T01:39:28.478Z,10.75
2023-11-04T01:41:29.982Z,10.74
2023-11-04T01:43:31.523Z,10.71
2023-11-04T01:45:35.495Z,10.71
2023-11-04T01:47:38.480Z,10.70
2023-11-04T01:49:40.048Z,10.68
2023-11-04T01:51:41.614Z,10.67
2023-11-04T01:53:48.324Z,10.66
2023-11-04T01:55:49.996Z,10.64
2023-11-04T01:57:51.682Z,10.62
2023-11-04T01:59:53.255Z,10.61
2023-11-04T02:01:54.992Z,10.59
2023-11-04T02:03:56.702Z,10.56
2023-11-04T02:06:01.734Z,10.54
2023-11-04T02:08:03.234Z,10.53
2023-11-04T02:10:06.690Z,10.49
2023-11-04T02:12:12.727Z,10.47
2023-11-04T02:14:14.274Z,10.44
2023-11-04T02:16:15.781Z,10.44
2023-11-04T02:18:17.966Z,10.40
2023-11-04T02:20:24.068Z,10.39
2023-11-04T02:22:26.096Z,10.37
2023-11-04T02:24:27.703Z,10.34
2023-11-04T02:26:29.466Z,10.32
2023-11-04T02:28:30.962Z,10.31
2023-11-04T02:30:33.077Z,10.32
2023-11-04T02:32:34.675Z,10.31
2023-11-04T02:34:36.409Z,10.30
2023-11-04T02:36:37.965Z,10.29
2023-11-04T02:38:39.480Z,10.28
2023-11-04T02:40:41.021Z,10.26
2023-11-04T02:42:42.680Z,10.26
2023-11-04T02:44:46.717Z,10.26
2023-11-04T02:46:51.000Z,10.25
2023-11-04T02:48:52.584Z,10.24
2023-11-04T02:50:54.303Z,10.24
2023-11-04T02:52:56.353Z,10.23
2023-11-04T02:54:58.245Z,10.22
2023-11-04T02:56:59.864Z,10.22
2023-11-04T02:59:01.437Z,10.23
2023-11-04T03:01:03.147Z,10.21
2023-11-04T03:03:05.120Z,10.22
2023-11-04T03:05:07.132Z,10.22
2023-11-04T03:07:09.353Z,10.20
2023-11-04T03:09:10.979Z,10.20
2023-11-04T03:11:12.553Z,10.17
2023-11-04T03:13:14.134Z,10.17
2023-11-04T03:15:19.805Z,10.15
2023-11-04T03:17:21.321Z,10.14
2023-11-04T03:19:22.993Z,10.12
2023-11-04T03:21:24.784Z,10.13
2023-11-04T03:23:26.432Z,10.13
2023-11-04T03:25:28.123Z,10.12
2023-11-04T03:27:29.712Z,10.10
2023-11-04T03:29:32.239Z,10.08
2023-11-04T03:35:42.757Z,10.04
2023-11-04T03:38:13.710Z,10.01
2023-11-04T03:40:17.036Z,10.00
2023-11-04T03:48:30.718Z,9.95
2023-11-04T03:50:32.255Z,9.94
2023-11-04T03:52:33.755Z,9.94
2023-11-04T03:54:36.979Z,9.93
2023-11-04T03:56:39.605Z,9.92
2023-11-04T03:58:41.053Z,9.92
2023-11-04T04:00:42.683Z,9.90
2023-11-04T04:02:44.237Z,9.89
2023-11-04T04:04:45.716Z,9.89
2023-11-04T04:06:47.398Z,9.87
2023-11-04T04:08:48.955Z,9.86
2023-11-04T04:10:50.500Z,9.85
2023-11-04T04:12:55.139Z,9.84
2023-11-04T04:14:56.609Z,9.83
2023-11-04T04:16:58.103Z,9.82
2023-11-04T04:18:59.665Z,9.81
2023-11-04T04:21:01.249Z,9.80
2023-11-04T04:23:03.849Z,9.79
2023-11-04T04:25:05.856Z,9.79
2023-11-04T04:27:07.300Z,9.78
2023-11-04T04:29:09.004Z,9.77
2023-11-04T04:31:10.513Z,9.76
2023-11-04T04:33:12.090Z,9.76
2023-11-04T04:35:13.807Z,9.76
2023-11-04T04:37:15.305Z,9.73
2023-11-04T04:39:17.597Z,9.73
2023-11-04T04:41:19.411Z,9.72
2023-11-04T04:43:21.147Z,9.70
2023-11-04T04:45:22.825Z,9.71
2023-11-04T04:47:24.298Z,9.70
2023-11-04T04:49:25.834Z,9.68
2023-11-04T04:51:27.407Z,9.67
2023-11-04T04:53:28.860Z,9.65
2023-11-04T04:55:30.366Z,9.64
2023-11-04T04:57:32.245Z,9.64
2023-11-04T04:59:34.183Z,9.64
2023-11-04T05:01:35.745Z,9.64
2023-11-04T05:03:37.348Z,9.63
2023-11-04T05:05:38.890Z,9.64
2023-11-04T05:07:41.053Z,9.63
2023-11-04T05:09:42.599Z,9.62
2023-11-04T05:11:44.094Z,9.61
2023-11-04T05:13:45.552Z,9.61
2023-11-04T05:15:47.083Z,9.61
2023-11-04T05:17:49.934Z,9.59
2023-11-04T05:19:53.515Z,9.59
2023-11-04T05:21:55.073Z,9.59
2023-11-04T05:23:56.614Z,9.59
2023-11-04T05:25:59.149Z,9.59
2023-11-04T05:28:00.641Z,9.58
2023-11-04T05:30:02.196Z,9.57
2023-11-04T05:32:05.443Z,9.58
2023-11-04T05:34:07.427Z,9.59
2023-11-04T05:36:09.280Z,9.59
2023-11-04T05:38:10.768Z,9.59
2023-11-04T05:40:12.676Z,9.59
2023-11-04T05:42:14.218Z,9.59
2023-11-04T05:44:16.803Z,9.59
2023-11-04T05:46:18.301Z,9.60
2023-11-04T05:48:20.484Z,9.59
2023-11-04T05:50:22.060Z,9.60
2023-11-04T05:52:23.567Z,9.59
2023-11-04T05:54:25.094Z,9.59
2023-11-04T05:56:27.385Z,9.61
2023-11-04T05:58:28.874Z,9.59
2023-11-04T06:00:30.806Z,9.60
2023-11-04T06:02:32.272Z,9.59
2023-11-04T06:04:33.884Z,9.61
2023-11-04T06:06:35.619Z,9.61
2023-11-04T06:08:37.264Z,9.60
2023-11-04T06:10:38.897Z,9.61
2023-11-04T06:12:40.566Z,9.61
2023-11-04T06:14:42.080Z,9.63
2023-11-04T06:16:44.622Z,9.63
2023-11-04T06:18:46.814Z,9.63
2023-11-04T06:20:48.856Z,9.62
2023-11-04T06:22:50.331Z,9.62
2023-11-04T06:24:53.941Z,9.63
2023-11-04T06:26:57.145Z,9.63
2023-11-04T06:28:58.617Z,9.63
2023-11-04T06:31:00.392Z,9.66
2023-11-04T06:33:01.944Z,9.65
2023-11-04T06:35:03.751Z,9.66
2023-11-04T06:37:06.591Z,9.68
2023-11-04T06:39:08.365Z,9.68
2023-11-04T06:41:17.408Z,9.67
2023-11-04T06:43:20.913Z,9.68
2023-11-04T06:45:22.443Z,9.69
2023-11-04T06:47:24.464Z,9.71
2023-11-04T06:49:26.052Z,9.69
2023-11-04T06:51:27.782Z,9.72
2023-11-04T06:53:29.480Z,9.73
2023-11-04T06:55:33.452Z,9.74
2023-11-04T06:57:35.146Z,9.75
2023-11-04T06:59:41.530Z,9.76
2023-11-04T07:01:48.677Z,9.77
2023-11-04T07:03:50.320Z,9.77
2023-11-04T07:05:52.102Z,9.77
2023-11-04T07:07:53.848Z,9.77
2023-11-04T07:09:55.384Z,9.80
2023-11-04T07:11:56.920Z,9.82
2023-11-04T07:13:58.500Z,9.82
2023-11-04T07:16:00.028Z,9.83
2023-11-04T07:18:01.637Z,9.84
2023-11-04T07:20:05.911Z,9.83
2023-11-04T07:22:08.040Z,9.84
2023-11-04T07:24:10.235Z,9.84
2023-11-04T07:26:14.484Z,9.83
2023-11-04T07:28:15.970Z,9.85
2023-11-04T07:30:17.435Z,9.85
2023-11-04T07:32:18.960Z,9.87
2023-11-04T07:34:20.631Z,9.88
2023-11-04T07:36:26.514Z,9.89
2023-11-04T07:38:28.117Z,9.92
2023-11-04T07:40:29.711Z,9.93
2023-11-04T07:42:31.277Z,9.93
2023-11-04T07:44:32.823Z,9.93
2023-11-04T07:46:34.542Z,9.94
2023-11-04T07:48:36.712Z,9.95
2023-11-04T07:50:38.895Z,9.96
2023-11-04T07:52:53.978Z,9.96
2023-11-04T07:55:00.369Z,10.00
2023-11-04T07:57:02.163Z,10.00
2023-11-04T07:59:03.835Z,10.04
2023-11-04T08:01:06.933Z,10.06
2023-11-04T08:03:08.594Z,10.08
2023-11-04T08:05:11.147Z,10.10
2023-11-04T08:07:12.773Z,10.13
2023-11-04T08:09:14.281Z,10.15
2023-11-04T08:11:17.268Z,10.19
2023-11-04T08:13:21.105Z,10.22
2023-11-04T08:15:23.236Z,10.24
2023-11-04T08:17:24.984Z,10.29
2023-11-04T08:19:29.398Z,10.32
2023-11-04T08:21:31.712Z,10.33
2023-11-04T08:23:33.643Z,10.37
2023-11-04T08:25:35.357Z,10.39
2023-11-04T08:27:37.334Z,10.42
2023-11-04T08:29:42.087Z,10.46
2023-11-04T08:31:43.584Z,10.50
2023-11-04T08:33:45.358Z,10.54
2023-11-04T08:35:47.713Z,10.56
2023-11-04T08:37:49.351Z,10.59
2023-11-04T08:39:52.147Z,10.63
2023-11-04T08:41:53.625Z,10.66
2023-11-04T08:43:55.102Z,10.71
2023-11-04T08:45:56.674Z,10.76
2023-11-04T08:47:58.298Z,10.80
2023-11-04T08:50:00.038Z,10.83
2023-11-04T08:52:01.520Z,10.90
2023-11-04T08:54:03.293Z,10.96
2023-11-04T08:56:06.779Z,11.01
2023-11-04T08:58:08.346Z,11.08
2023-11-04T09:00:12.707Z,11.14
2023-11-04T09:02:14.713Z,11.20
2023-11-04T09:04:23.730Z,11.25
2023-11-04T09:06:28.079Z,11.30
2023-11-04T09:08:29.686Z,11.35
2023-11-04T09:10:31.211Z,11.41
2023-11-04T09:12:32.738Z,11.46
2023-11-04T09:14:35.091Z,11.51
2023-11-04T09:16:37.283Z,11.55
2023-11-04T09:18:41.852Z,11.62
2023-11-04T09:20:44.163Z,11.68
2023-11-04T09:22:45.850Z,11.74
2023-11-04T09:24:47.517Z,11.80
2023-11-04T09:26:49.181Z,11.86
2023-11-04T09:28:50.796Z,11.92
2023-11-04T09:30:55.593Z,11.99
2023-11-04T09:32:57.483Z,12.03
2023-11-04T09:34:59.547Z,12.11
2023-11-04T09:37:01.101Z,12.18
2023-11-04T09:39:03.073Z,12.25
2023-11-04T09:41:06.166Z,12.33
2023-11-04T09:43:08.233Z,12.41
2023-11-04T09:45:11.317Z,12.50
2023-11-04T09:47:13.088Z,12.59
2023-11-04T09:49:15.412Z,12.66
2023-11-04T09:51:22.495Z,12.73
2023-11-04T09:53:28.573Z,12.84
2023-11-04T09:55:30.138Z,12.91
2023-11-04T09:57:31.759Z,13.01
2023-11-04T09:59:34.934Z,13.09
2023-11-04T10:01:36.483Z,13.17
2023-11-04T10:03:38.074Z,13.28
2023-11-04T10:05:39.640Z,13.36
2023-11-04T10:07:41.123Z,13.47
2023-11-04T10:09:45.114Z,13.56
2023-11-04T10:11:46.886Z,13.66
2023-11-04T10:13:48.504Z,13.75
2023-11-04T10:15:50.093Z,13.87
2023-11-04T10:17:52.294Z,14.02
2023-11-04T10:19:54.733Z,14.16
2023-11-04T10:21:56.232Z,14.33
2023-11-04T10:23:58.412Z,14.49
2023-11-04T10:26:05.454Z,14.68
2023-11-04T10:28:07.594Z,14.87
2023-11-04T10:30:10.628Z,15.04
2023-11-04T10:32:12.902Z,15.21
2023-11-04T10:34:16.231Z,15.36
2023-11-04T10:36:19.085Z,15.51
2023-11-04T10:38:23.759Z,15.63
2023-11-04T10:40:26.146Z,15.75
2023-11-04T10:42:31.071Z,15.86
2023-11-04T10:44:39.853Z,15.99
2023-11-04T10:46:54.266Z,16.08
2023-11-04T10:49:20.224Z,16.21
2023-11-04T10:51:29.763Z,16.34
2023-11-04T10:53:42.870Z,16.47
2023-11-04T10:55:55.126Z,16.61
2023-11-04T10:58:04.268Z,16.74
2023-11-04T11:00:24.719Z,16.90
2023-11-04T11:02:27.940Z,17.05
2023-11-04T11:04:32.231Z,17.20
2023-11-04T11:06:34.579Z,17.32
2023-11-04T11:08:36.395Z,17.45
2023-11-04T11:11:04.124Z,17.54
2023-11-04T11:13:12.171Z,17.59
2023-11-04T11:15:14.111Z,17.64
2023-11-04T11:17:15.637Z,17.65
2023-11-04T11:19:17.236Z,17.70
2023-11-04T11:21:22.292Z,17.72
2023-11-04T11:23:27.965Z,17.78
2023-11-04T11:25:36.379Z,17.83
2023-11-04T11:27:45.423Z,17.88
2023-11-04T11:29:47.558Z,17.93
2023-11-04T11:31:54.811Z,17.99
2023-11-04T11:34:07.613Z,18.02
2023-11-04T11:36:15.599Z,18.07
2023-11-04T11:38:17.742Z,18.06
2023-11-04T11:40:26.380Z,18.04
2023-11-04T11:42:28.048Z,18.04
2023-11-04T11:44:29.530Z,18.03
2023-11-04T11:46:33.506Z,18.03
2023-11-04T11:48:37.661Z,18.02
2023-11-04T11:50:41.997Z,18.01
2023-11-04T11:52:43.541Z,17.97
2023-11-04T11:54:45.274Z,17.94
2023-11-04T11:56:46.948Z,17.91
2023-11-04T11:58:50.069Z,17.87
2023-11-04T12:00:51.703Z,17.84
2023-11-04T12:02:56.068Z,17.81
2023-11-04T12:04:57.674Z,17.79
2023-11-04T12:07:01.313Z,17.77
2023-11-04T12:09:03.237Z,17.75
2023-11-04T12:11:05.042Z,17.72
2023-11-04T12:13:06.569Z,17.70
2023-11-04T12:15:16.973Z,17.64
2023-11-04T12:17:18.469Z,17.63
2023-11-04T12:19:22.230Z,17.58
2023-11-04T12:21:26.118Z,17.56
2023-11-04T12:23:31.179Z,17.51
2023-11-04T12:25:33.217Z,17.46
2023-11-04T12:27:48.398Z,17.37
2023-11-04T12:29:53.870Z,17.31
2023-11-04T12:31:58.414Z,17.26
2023-11-04T12:34:00.389Z,17.21
2023-11-04T12:36:08.163Z,17.14
2023-11-04T12:38:10.001Z,17.11
2023-11-04T12:40:15.107Z,17.08
2023-11-04T12:42:16.843Z,17.04
2023-11-04T12:44:21.357Z,17.02
2023-11-04T12:46:28.576Z,16.99
2023-11-04T12:48:30.331Z,16.99
2023-11-04T12:50:32.179Z,16.95
2023-11-04T12:52:34.473Z,16.94
2023-11-04T12:54:37.413Z,16.90
2023-11-04T12:56:38.947Z,16.89
2023-11-04T12:58:40.779Z,16.83
2023-11-04T13:00:42.252Z,16.80
2023-11-04T13:02:44.139Z,16.78
2023-11-04T13:04:45.779Z,16.74
2023-11-04T13:06:47.363Z,16.72
2023-11-04T13:08:48.861Z,16.68
2023-11-04T13:10:51.771Z,16.63
2023-11-04T13:12:53.379Z,16.58
2023-11-04T13:14:54.876Z,16.56
2023-11-04T13:16:58.208Z,16.53
2023-11-04T13:19:02.900Z,16.49
2023-11-04T13:21:06.913Z,16.46
2023-11-04T13:23:08.433Z,16.44
2023-11-04T13:25:09.979Z,16.41
2023-11-04T13:27:11.549Z,16.37
2023-11-04T13:29:14.445Z,16.34
2023-11-04T13:31:18.098Z,16.32
2023-11-04T13:33:19.954Z,16.29
2023-11-04T13:35:22.134Z,16.25
2023-11-04T13:37:23.773Z,16.23
2023-11-04T13:39:28.007Z,16.22
2023-11-04T13:41:29.980Z,16.20
2023-11-04T13:43:31.463Z,16.17
2023-11-04T13:45:32.934Z,16.18
2023-11-04T13:47:37.352Z,16.16
2023-11-04T13:49:41.707Z,16.13
2023-11-04T13:51:45.692Z,16.08
2023-11-04T13:53:49.324Z,16.08
2023-11-04T13:55:54.195Z,16.07
2023-11-04T13:57:55.804Z,16.06
2023-11-04T13:59:57.358Z,16.05
2023-11-04T14:01:58.865Z,16.07
2023-11-04T14:04:02.554Z,16.07
2023-11-04T14:06:06.069Z,16.07
2023-11-04T14:08:08.013Z,16.08
2023-11-04T14:10:10.392Z,16.07
2023-11-04T14:12:13.231Z,16.07
2023-11-04T14:14:14.853Z,16.06
2023-11-04T14:16:16.421Z,16.03
2023-11-04T14:18:18.768Z,16.01
2023-11-04T14:20:21.448Z,15.98
2023-11-04T14:22:22.958Z,15.97
2023-11-04T14:24:24.445Z,15.95
2023-11-04T14:26:26.000Z,15.94
2023-11-04T14:28:27.737Z,15.90
2023-11-04T14:30:29.415Z,15.88
2023-11-04T14:32:30.962Z,15.84
2023-11-04T14:34:32.486Z,15.83
2023-11-04T14:36:33.989Z,15.81
2023-11-04T14:38:35.439Z,15.78
2023-11-04T14:40:37.705Z,15.78
2023-11-04T14:42:39.217Z,15.76
2023-11-04T14:44:41.117Z,15.75
2023-11-04T14:46:42.593Z,15.72
2023-11-04T14:48:44.509Z,15.67
2023-11-04T14:50:46.300Z,15.67
2023-11-04T14:52:47.898Z,15.63
2023-11-04T14:54:49.424Z,15.59
2023-11-04T14:56:50.954Z,15.56
2023-11-04T14:58:52.833Z,15.53
2023-11-04T15:00:55.891Z,15.50
2023-11-04T15:02:58.333Z,15.51
2023-11-04T15:04:59.802Z,15.48
2023-11-04T15:07:01.281Z,15.45
2023-11-04T15:09:03.564Z,15.44
2023-11-04T15:11:05.315Z,15.41
2023-11-04T15:13:06.848Z,15.41
2023-11-04T15:15:08.639Z,15.37
2023-11-04T15:17:10.639Z,15.36
2023-11-04T15:19:12.424Z,15.31
2023-11-04T15:21:14.628Z,15.29
2023-11-04T15:23:16.335Z,15.28
2023-11-04T15:25:17.845Z,15.26
2023-11-04T15:27:19.459Z,15.24
2023-11-04T15:29:20.949Z,15.21
2023-11-04T15:31:22.503Z,15.19
2023-11-04T15:33:24.052Z,15.16
2023-11-04T15:35:26.110Z,15.12
2023-11-04T15:37:28.637Z,15.09
2023-11-04T15:39:34.235Z,15.07
2023-11-04T15:41:38.910Z,15.02
2023-11-04T15:43:40.438Z,15.00
2023-11-04T15:45:41.945Z,14.98
2023-11-04T15:47:43.478Z,14.97
2023-11-04T15:49:46.973Z,14.95
2023-11-04T15:51:48.544Z,14.92
2023-11-04T15:53:52.381Z,14.90
2023-11-04T15:55:55.488Z,14.86
2023-11-04T15:57:57.069Z,14.84
2023-11-04T15:59:58.590Z,14.81
2023-11-04T16:02:00.092Z,14.79
2023-11-04T16:04:01.673Z,14.78
2023-11-04T16:06:03.340Z,14.75
2023-11-04T16:08:05.103Z,14.75
2023-11-04T16:10:09.457Z,14.73
2023-11-04T16:12:11.976Z,14.73
2023-11-04T16:14:14.136Z,14.71
2023-11-04T16:16:15.717Z,14.71
2023-11-04T16:18:17.370Z,14.69
2023-11-04T16:20:20.098Z,14.65
2023-11-04T16:22:21.605Z,14.61
2023-11-04T16:24:23.151Z,14.59
2023-11-04T16:26:24.674Z,14.54
2023-11-04T16:28:26.149Z,14.50
2023-11-04T16:30:28.440Z,14.45
2023-11-04T16:32:30.249Z,14.43
2023-11-04T16:34:31.776Z,14.38
2023-11-04T16:36:33.455Z,14.33
2023-11-04T16:38:34.899Z,14.31
2023-11-04T16:40:36.457Z,14.30
2023-11-04T16:42:40.032Z,14.27
2023-11-04T16:44:44.673Z,14.26
2023-11-04T16:46:46.331Z,14.22
2023-11-04T16:48:48.264Z,14.18
2023-11-04T16:50:50.152Z,14.16
2023-11-04T16:52:51.798Z,14.13
2023-11-04T16:54:53.338Z,14.14
2023-11-04T16:56:55.094Z,14.11
2023-11-04T16:58:56.566Z,14.11
2023-11-04T17:00:58.563Z,14.09
2023-11-04T17:03:00.265Z,14.06
2023-11-04T17:05:02.260Z,14.04
2023-11-04T17:07:04.972Z,14.03
2023-11-04T17:09:10.655Z,14.01
2023-11-04T17:11:12.206Z,13.98
2023-11-04T17:13:13.926Z,13.95
2023-11-04T17:15:16.212Z,13.90
2023-11-04T17:17:17.769Z,13.90
2023-11-04T17:19:19.350Z,13.88
2023-11-04T17:21:20.842Z,13.85
2023-11-04T17:23:22.772Z,13.83
2023-11-04T17:25:24.311Z,13.81
2023-11-04T17:27:26.004Z,13.79
2023-11-04T17:29:27.975Z,13.77
2023-11-04T17:31:30.160Z,13.76
2023-11-04T17:33:31.667Z,13.72
2023-11-04T17:35:33.198Z,13.72
2023-11-04T17:37:34.795Z,13.71
2023-11-04T17:39:36.423Z,13.70
2023-11-04T17:41:37.922Z,13.69
2023-11-04T17:43:39.950Z,13.66
2023-11-04T17:45:41.412Z,13.68
2023-11-04T17:47:43.334Z,13.65
2023-11-04T17:49:45.511Z,13.66
2023-11-04T17:51:47.379Z,13.66
2023-11-04T17:53:48.912Z,13.65
2023-11-04T17:55:50.379Z,13.67
2023-11-04T17:57:51.954Z,13.65
2023-11-04T17:59:53.604Z,13.66
2023-11-04T18:01:55.130Z,13.65
2023-11-04T18:03:58.386Z,13.63
2023-11-04T18:05:59.856Z,13.65
2023-11-04T18:08:01.587Z,13.65
2023-11-04T18:10:03.939Z,13.66
2023-11-04T18:12:05.987Z,13.65
2023-11-04T18:14:08.913Z,13.65
2023-11-04T18:16:10.530Z,13.64
2023-11-04T18:18:12.152Z,13.64
2023-11-04T18:20:13.788Z,13.65
2023-11-04T18:22:15.363Z,13.62
2023-11-04T18:24:19.167Z,13.62
2023-11-04T18:26:21.194Z,13.61
2023-11-04T18:28:22.704Z,13.62
2023-11-04T18:30:24.238Z,13.62
2023-11-04T18:32:25.744Z,13.62
2023-11-04T18:34:27.460Z,13.62
2023-11-04T18:36:29.227Z,13.61
2023-11-04T18:38:30.703Z,13.60
2023-11-04T18:40:32.194Z,13.59
2023-11-04T18:42:33.681Z,13.56
2023-11-04T18:44:35.173Z,13.57
2023-11-04T18:46:38.585Z,13.56
2023-11-04T18:48:40.934Z,13.58
2023-11-04T18:50:47.659Z,13.57
2023-11-04T18:53:05.541Z,13.57
2023-11-04T18:55:07.542Z,13.57
2023-11-04T18:57:09.146Z,13.59
2023-11-04T18:59:10.710Z,13.59
2023-11-04T19:01:12.310Z,13.60
2023-11-04T19:03:20.086Z,13.61
2023-11-04T19:05:21.732Z,13.63
2023-11-04T19:07:23.423Z,13.65
2023-11-04T19:09:25.589Z,13.64
2023-11-04T19:11:27.087Z,13.67
2023-11-04T19:13:28.642Z,13.68
2023-11-04T19:15:30.295Z,13.69
2023-11-04T19:17:32.188Z,13.71
2023-11-04T19:19:36.259Z,13.71
2023-11-04T19:21:40.370Z,13.72
2023-11-04T19:23:41.847Z,13.71
2023-11-04T19:25:43.396Z,13.73
2023-11-04T19:27:44.986Z,13.72
2023-11-04T19:29:46.877Z,13.74
2023-11-04T19:31:48.376Z,13.75
2023-11-04T19:33:50.131Z,13.74
2023-11-04T19:35:51.805Z,13.75
2023-11-04T19:37:53.619Z,13.75
2023-11-04T19:39:55.104Z,13.76
2023-11-04T19:41:57.080Z,13.78
2023-11-04T19:44:01.019Z,13.78
2023-11-04T19:46:03.394Z,13.77
2023-11-04T19:48:05.834Z,13.79
2023-11-04T19:50:08.452Z,13.79
2023-11-04T19:52:10.169Z,13.80
2023-11-04T19:54:11.757Z,13.81
2023-11-04T19:56:13.305Z,13.83
2023-11-04T19:58:14.777Z,13.83
2023-11-04T20:00:16.502Z,13.84
2023-11-04T20:02:18.220Z,13.84
2023-11-04T20:04:19.851Z,13.85
2023-11-04T20:06:21.540Z,13.87
2023-11-04T20:08:23.029Z,13.88
2023-11-04T20:10:25.004Z,13.89
2023-11-04T20:12:26.527Z,13.89
2023-11-04T20:14:33.668Z,13.89
2023-11-04T20:16:36.000Z,13.91
2023-11-04T20:18:37.506Z,13.92
2023-11-04T20:20:39.033Z,13.93
2023-11-04T20:22:40.593Z,13.93
2023-11-04T20:24:51.332Z,13.94
2023-11-04T20:26:52.830Z,13.97
2023-11-04T20:28:54.317Z,13.98
2023-11-04T20:30:57.129Z,13.97
2023-11-04T20:32:58.717Z,13.97
2023-11-04T20:35:00.641Z,13.98
2023-11-04T20:37:02.124Z,13.98
2023-11-04T20:39:05.199Z,14.00
2023-11-04T20:41:06.959Z,14.01
2023-11-04T20:43:08.987Z,14.01
2023-11-04T20:45:10.630Z,14.02
2023-11-04T20:47:14.199Z,14.02
2023-11-04T20:49:15.736Z,14.02
2023-11-04T20:51:17.845Z,14.01
2023-11-04T20:53:20.535Z,14.03
2023-11-04T20:55:22.335Z,14.04
2023-11-04T20:57:26.034Z,14.04
2023-11-04T20:59:27.654Z,14.05
2023-11-04T21:01:29.198Z,14.05
2023-11-04T21:03:30.749Z,14.06
2023-11-04T21:05:32.424Z,14.08
2023-11-04T21:07:34.321Z,14.07
2023-11-04T21:09:36.558Z,14.07
2023-11-04T21:11:39.868Z,14.09
2023-11-04T21:13:41.380Z,14.10
2023-11-04T21:15:43.550Z,14.12
2023-11-04T21:17:45.807Z,14.12
2023-11-04T21:19:48.513Z,14.14
2023-11-04T21:21:49.965Z,14.14
2023-11-04T21:23:52.217Z,14.15
2023-11-04T21:25:53.845Z,14.15
2023-11-04T21:27:55.337Z,14.17
2023-11-04T21:29:57.307Z,14.17
2023-11-04T21:31:58.802Z,14.17
2023-11-04T21:34:00.318Z,14.16
2023-11-04T21:36:02.350Z,14.16
2023-11-04T21:38:05.046Z,14.16
2023-11-04T21:40:07.852Z,14.17
2023-11-04T21:42:10.310Z,14.19
2023-11-04T21:44:12.134Z,14.16
2023-11-04T21:46:13.894Z,14.17
2023-11-04T21:48:15.475Z,14.17
2023-11-04T21:50:18.096Z,14.17
2023-11-04T21:52:19.626Z,14.18
2023-11-04T21:54:21.385Z,14.18
2023-11-04T21:56:22.898Z,14.17
2023-11-04T21:58:24.490Z,14.18
2023-11-04T22:00:25.965Z,14.18
2023-11-04T22:02:27.652Z,14.17
2023-11-04T22:04:29.451Z,14.17
2023-11-04T22:06:31.186Z,14.18
2023-11-04T22:08:32.714Z,14.18
2023-11-04T22:10:38.780Z,14.18
2023-11-04T22:12:40.414Z,14.17
2023-11-04T22:14:41.863Z,14.18
2023-11-04T22:16:43.328Z,14.20
2023-11-04T22:18:45.006Z,14.21
2023-11-04T22:20:46.671Z,14.21
2023-11-04T22:22:48.145Z,14.23
2023-11-04T22:24:49.639Z,14.24
2023-11-04T22:26:51.105Z,14.25
2023-11-04T22:28:52.616Z,14.26
2023-11-04T22:30:54.289Z,14.27
2023-11-04T22:32:56.407Z,14.28
2023-11-04T22:34:57.898Z,14.29
2023-11-04T22:36:59.413Z,14.29
2023-11-04T22:39:00.909Z,14.28
2023-11-04T22:41:02.499Z,14.28
2023-11-04T22:43:04.470Z,14.29
2023-11-04T22:45:06.937Z,14.30
2023-11-04T22:47:08.423Z,14.28
2023-11-04T22:49:14.229Z,14.29
2023-11-04T22:51:16.588Z,14.30
2023-11-04T22:53:18.078Z,14.29
2023-11-04T22:55:22.626Z,14.29
2023-11-04T22:57:24.682Z,14.32
2023-11-04T22:59:26.506Z,14.32
2023-11-04T23:01:29.843Z,14.33
2023-11-04T23:03:31.512Z,14.32
2023-11-04T23:05:34.029Z,14.30
2023-11-04T23:07:35.627Z,14.33
2023-11-04T23:09:37.461Z,14.33
2023-11-04T23:11:38.933Z,14.35
2023-11-04T23:13:41.114Z,14.35
2023-11-04T23:15:42.593Z,14.35
2023-11-04T23:17:47.406Z,14.37
2023-11-04T23:19:48.875Z,14.38
2023-11-04T23:21:50.414Z,14.38
2023-11-04T23:23:52.082Z,14.38
2023-11-04T23:25:53.578Z,14.37
2023-11-04T23:27:55.208Z,14.37
2023-11-04T23:29:56.679Z,14.37
2023-11-04T23:31:58.241Z,14.37
2023-11-04T23:33:59.791Z,14.38
2023-11-04T23:36:01.290Z,14.38
2023-11-04T23:38:03.102Z,14.37
2023-11-04T23:40:06.737Z,14.38
2023-11-04T23:42:08.538Z,14.38
2023-11-04T23:44:10.054Z,14.38
2023-11-04T23:46:11.614Z,14.39
2023-11-04T23:48:13.114Z,14.40
2023-11-04T23:50:14.882Z,14.37
2023-11-04T23:52:16.493Z,14.38
2023-11-04T23:54:17.998Z,14.38
2023-11-04T23:56:19.481Z,14.38
2023-11-04T23:58:21.116Z,14.37
